Time;durP1;ratioP1;P1;durP2;ratioP2;P2;SDS_P1;SDS_P2;PMS_P1;PMS_P2;Temp;Humidity;BMP_temperature;BMP_pressure;BME280_temperature;BME280_humidity;BME280_pressure;Samples;Min_cycle;Max_cycle;Signal;HPM_P1;HPM_P2
2024/01/29 00:01:00;;;;;;;4.97;4.45;;;;;;;;;;5010421;28;20049;-80
2024/01/29 00:03:26;;;;;;;7.93;4.57;;;;;;;;;;5007011;28;20080;-80
2024/01/29 00:05:52;;;;;;;7.18;5.03;;;;;;;;;;5007865;28;20061;-81
2024/01/29 00:08:18;;;;;;;5.30;4.53;;;;;;;;;;5028912;28;20049;-80
2024/01/29 00:10:44;;;;;;;7.47;5.32;;;;;;;;;;5026438;28;20044;-81
2024/01/29 00:13:10;;;;;;;6.32;5.03;;;;;;;;;;5010984;28;20080;-81
2024/01/29 00:15:36;;;;;;;6.43;5.55;;;;;;;;;;5008403;28;20042;-81
2024/01/29 00:18:02;;;;;;;5.88;4.68;;;;;;;;;;5026818;28;20042;-81
2024/01/29 00:20:28;;;;;;;6.90;4.70;;;;;;;;;;4996212;28;20048;-81
2024/01/29 00:22:54;;;;;;;6.65;4.80;;;;;;;;;;5012145;28;20092;-80
2024/01/29 00:25:20;;;;;;;5.32;4.82;;;;;;;;;;4998544;28;20046;-81
2024/01/29 00:27:46;;;;;;;6.55;4.53;;;;;;;;;;5015938;28;20052;-81
2024/01/29 00:30:12;;;;;;;6.70;5.60;;;;;;;;;;5027964;28;20042;-81
2024/01/29 00:32:40;;;;;;;7.88;5.63;;;;;;;;;;5028988;28;20407;-80
2024/01/29 00:35:07;;;;;;;5.93;5.32;;;;;;;;;;5008737;28;20049;-81
2024/01/29 00:37:33;;;;;;;8.70;5.25;;;;;;;;;;4993996;28;20124;-81
2024/01/29 00:39:59;;;;;;;5.78;5.18;;;;;;;;;;5027268;28;20132;-80
2024/01/29 00:42:25;;;;;;;5.82;4.95;;;;;;;;;;5025795;28;20088;-80
2024/01/29 00:44:51;;;;;;;8.52;5.57;;;;;;;;;;5024826;28;20037;-81
2024/01/29 00:47:20;;;;;;;5.65;5.10;;;;;;;;;;4995157;28;20045;-81
2024/01/29 00:49:46;;;;;;;8.80;5.47;;;;;;;;;;4992515;28;20037;-80
2024/01/29 00:52:12;;;;;;;6.03;4.85;;;;;;;;;;5010192;28;20052;-81
2024/01/29 00:54:38;;;;;;;5.65;5.13;;;;;;;;;;5007435;28;20128;-81
2024/01/29 00:57:04;;;;;;;6.43;5.43;;;;;;;;;;5011644;28;20461;-80
2024/01/29 00:59:30;;;;;;;6.28;4.88;;;;;;;;;;5027121;28;20063;-80
2024/01/29 01:01:56;;;;;;;7.68;5.03;;;;;;;;;;5025161;28;20099;-80
2024/01/29 01:04:22;;;;;;;7.47;5.03;;;;;;;;;;5007368;28;20042;-80
2024/01/29 01:06:48;;;;;;;6.65;5.20;;;;;;;;;;4992889;28;20372;-81
2024/01/29 01:09:14;;;;;;;8.27;5.45;;;;;;;;;;5025995;28;20068;-81
2024/01/29 01:11:44;;;;;;;6.40;5.20;;;;;;;;;;5026416;28;20045;-81
2024/01/29 01:14:10;;;;;;;6.85;5.00;;;;;;;;;;5026071;28;20063;-80
2024/01/29 01:16:36;;;;;;;8.00;5.35;;;;;;;;;;5008674;28;20041;-81
2024/01/29 01:19:02;;;;;;;5.78;4.57;;;;;;;;;;5010757;28;20455;-81
2024/01/29 01:21:28;;;;;;;6.63;4.63;;;;;;;;;;5028343;28;20100;-80
2024/01/29 01:23:54;;;;;;;5.85;4.60;;;;;;;;;;5028504;28;20045;-80
2024/01/29 01:26:20;;;;;;;6.88;4.80;;;;;;;;;;5009712;28;20414;-80
2024/01/29 01:28:46;;;;;;;6.13;5.38;;;;;;;;;;5028931;28;20037;-81
2024/01/29 01:31:14;;;;;;;5.88;4.88;;;;;;;;;;5010578;28;20136;-80
2024/01/29 01:33:40;;;;;;;7.18;4.90;;;;;;;;;;5009919;28;20124;-81
2024/01/29 01:36:06;;;;;;;7.40;5.47;;;;;;;;;;5008974;28;20041;-80
2024/01/29 01:38:32;;;;;;;6.22;4.78;;;;;;;;;;5010711;28;20574;-81
2024/01/29 01:40:58;;;;;;;9.38;5.07;;;;;;;;;;5025701;28;20045;-80
2024/01/29 01:43:24;;;;;;;5.82;4.90;;;;;;;;;;5026502;28;20545;-80
2024/01/29 01:46:06;;;;;;;6.82;5.05;;;;;;;;;;5008434;28;20129;-80
2024/01/29 01:48:32;;;;;;;7.75;5.45;;;;;;;;;;4992622;28;20052;-80
2024/01/29 01:50:59;;;;;;;7.25;5.38;;;;;;;;;;5009292;28;20085;-80
2024/01/29 01:53:26;;;;;;;8.82;5.00;;;;;;;;;;4991803;28;20060;-80
2024/01/29 01:55:52;;;;;;;6.32;4.97;;;;;;;;;;5026610;28;20045;-80
2024/01/29 01:58:19;;;;;;;6.07;5.22;;;;;;;;;;5009252;28;20415;-81
2024/01/29 02:00:45;;;;;;;6.97;5.18;;;;;;;;;;5009149;28;20052;-80
2024/01/29 02:03:11;;;;;;;6.40;4.95;;;;;;;;;;5007693;28;20051;-80
2024/01/29 02:05:38;;;;;;;5.93;4.90;;;;;;;;;;5023135;28;20108;-80
2024/01/29 02:08:04;;;;;;;9.05;5.35;;;;;;;;;;5007772;28;20145;-80
2024/01/29 02:10:30;;;;;;;6.10;5.22;;;;;;;;;;5024790;28;20195;-80
2024/01/29 02:12:56;;;;;;;5.43;4.93;;;;;;;;;;5007475;28;20084;-80
2024/01/29 02:15:24;;;;;;;7.55;4.82;;;;;;;;;;5024666;28;20041;-80
2024/01/29 02:17:50;;;;;;;7.78;5.38;;;;;;;;;;5009160;28;20095;-80
2024/01/29 02:20:17;;;;;;;6.60;5.18;;;;;;;;;;5026798;28;20124;-80
2024/01/29 02:22:46;;;;;;;5.55;4.90;;;;;;;;;;4991501;28;20041;-80
2024/01/29 02:25:16;;;;;;;7.13;5.40;;;;;;;;;;5007095;28;20622;-80
2024/01/29 02:27:42;;;;;;;7.70;5.25;;;;;;;;;;5026057;28;20037;-80
2024/01/29 02:30:08;;;;;;;7.13;5.05;;;;;;;;;;5025197;28;20414;-80
2024/01/29 02:32:34;;;;;;;7.32;5.43;;;;;;;;;;5011661;28;20050;-80
2024/01/29 02:35:00;;;;;;;6.97;5.20;;;;;;;;;;5003330;28;20510;-80
2024/01/29 02:37:26;;;;;;;6.97;4.88;;;;;;;;;;4998444;28;20046;-80
2024/01/29 02:39:52;;;;;;;7.07;5.03;;;;;;;;;;5021533;28;20049;-80
2024/01/29 02:42:18;;;;;;;7.03;5.35;;;;;;;;;;5003702;28;20037;-80
2024/01/29 02:44:46;;;;;;;6.88;4.72;;;;;;;;;;5026975;28;20107;-80
2024/01/29 02:47:14;;;;;;;6.82;5.43;;;;;;;;;;5027108;28;20533;-80
2024/01/29 02:49:40;;;;;;;6.80;5.13;;;;;;;;;;5026900;28;20132;-80
2024/01/29 02:52:06;;;;;;;7.57;5.43;;;;;;;;;;5027617;28;20041;-80
2024/01/29 02:54:32;;;;;;;6.85;4.45;;;;;;;;;;5007629;28;20123;-80
2024/01/29 02:56:58;;;;;;;7.30;5.47;;;;;;;;;;5008193;28;20042;-80
2024/01/29 02:59:24;;;;;;;7.20;5.07;;;;;;;;;;5010842;28;20056;-80
2024/01/29 03:01:50;;;;;;;8.43;5.05;;;;;;;;;;5007395;28;20153;-80
2024/01/29 03:04:16;;;;;;;7.13;5.20;;;;;;;;;;5026544;28;20423;-80
2024/01/29 03:06:42;;;;;;;6.35;5.07;;;;;;;;;;5007337;28;20047;-80
2024/01/29 03:09:08;;;;;;;5.65;4.78;;;;;;;;;;5025678;28;20049;-80
2024/01/29 03:11:34;;;;;;;6.90;5.30;;;;;;;;;;5024832;28;20048;-80
2024/01/29 03:14:01;;;;;;;6.55;5.05;;;;;;;;;;5026179;28;20573;-80
2024/01/29 03:16:27;;;;;;;8.23;5.63;;;;;;;;;;5011729;28;20092;-80
2024/01/29 03:18:53;;;;;;;6.32;5.07;;;;;;;;;;5029970;28;20084;-80
2024/01/29 03:21:19;;;;;;;6.70;5.13;;;;;;;;;;5030327;28;20053;-80
2024/01/29 03:23:45;;;;;;;7.47;5.95;;;;;;;;;;5029452;28;20046;-80
2024/01/29 03:26:11;;;;;;;6.68;5.28;;;;;;;;;;5029382;28;20404;-80
2024/01/29 03:28:37;;;;;;;8.15;5.13;;;;;;;;;;5011354;28;20144;-80
2024/01/29 03:31:03;;;;;;;7.47;5.10;;;;;;;;;;4996419;28;20176;-80
2024/01/29 03:33:29;;;;;;;6.07;5.30;;;;;;;;;;5022015;28;20077;-80
2024/01/29 03:35:55;;;;;;;5.80;5.10;;;;;;;;;;4993931;28;20538;-81
2024/01/29 03:38:21;;;;;;;7.18;5.22;;;;;;;;;;5010976;28;20503;-81
2024/01/29 03:40:47;;;;;;;6.70;5.53;;;;;;;;;;5012390;28;20172;-81
2024/01/29 03:43:13;;;;;;;6.53;5.70;;;;;;;;;;5028073;28;20129;-81
2024/01/29 03:45:39;;;;;;;5.43;4.75;;;;;;;;;;5029112;28;20137;-80
2024/01/29 03:48:05;;;;;;;6.95;5.65;;;;;;;;;;5010184;28;20533;-80
2024/01/29 03:50:31;;;;;;;6.75;5.25;;;;;;;;;;5028484;28;20076;-79
2024/01/29 03:52:57;;;;;;;8.10;5.60;;;;;;;;;;5028079;28;20052;-81
2024/01/29 03:55:23;;;;;;;8.50;5.43;;;;;;;;;;5029236;28;20415;-81
2024/01/29 03:57:49;;;;;;;6.90;5.43;;;;;;;;;;5010497;28;20120;-81
2024/01/29 04:00:18;;;;;;;5.63;5.00;;;;;;;;;;5029101;28;20558;-81
2024/01/29 04:02:46;;;;;;;8.70;5.15;;;;;;;;;;5028100;28;20076;-81
2024/01/29 04:05:12;;;;;;;6.47;5.40;;;;;;;;;;4998167;28;20066;-81
2024/01/29 04:07:38;;;;;;;7.55;5.80;;;;;;;;;;4982730;28;20058;-81
2024/01/29 04:10:05;;;;;;;7.22;5.63;;;;;;;;;;4987501;28;20054;-81
2024/01/29 04:12:30;;;;;;;8.95;5.35;;;;;;;;;;4988805;28;20117;-81
2024/01/29 04:14:56;;;;;;;8.05;5.63;;;;;;;;;;4989346;28;20137;-81
2024/01/29 04:17:22;;;;;;;8.38;5.47;;;;;;;;;;4988334;28;20535;-81
2024/01/29 04:19:48;;;;;;;8.70;5.70;;;;;;;;;;4988879;28;20065;-81
2024/01/29 04:22:14;;;;;;;8.02;5.90;;;;;;;;;;4986223;28;20042;-81
2024/01/29 04:24:40;;;;;;;7.63;5.93;;;;;;;;;;4988712;28;20088;-81
2024/01/29 04:27:06;;;;;;;8.00;5.65;;;;;;;;;;4987243;28;20046;-81
2024/01/29 04:29:32;;;;;;;6.75;5.60;;;;;;;;;;4987438;28;20076;-81
2024/01/29 04:31:58;;;;;;;8.18;5.70;;;;;;;;;;4988794;28;20146;-81
2024/01/29 04:34:25;;;;;;;8.48;5.72;;;;;;;;;;4987883;28;20046;-81
2024/01/29 04:36:51;;;;;;;7.80;5.85;;;;;;;;;;4985322;28;20388;-81
2024/01/29 04:39:17;;;;;;;7.88;6.00;;;;;;;;;;4988993;28;20050;-81
2024/01/29 04:41:43;;;;;;;8.32;5.90;;;;;;;;;;4987388;28;20046;-81
2024/01/29 04:44:08;;;;;;;8.82;6.47;;;;;;;;;;4985906;28;20082;-81
2024/01/29 04:46:36;;;;;;;6.97;6.13;;;;;;;;;;4970840;28;20054;-81
2024/01/29 04:49:02;;;;;;;9.90;6.47;;;;;;;;;;4981428;28;20113;-81
2024/01/29 04:51:28;;;;;;;7.47;5.95;;;;;;;;;;4985641;28;20039;-81
2024/01/29 04:53:54;;;;;;;6.40;5.30;;;;;;;;;;4987280;28;20046;-80
2024/01/29 04:56:20;;;;;;;7.75;5.78;;;;;;;;;;4987453;28;20563;-80
2024/01/29 04:58:46;;;;;;;7.53;6.05;;;;;;;;;;4985716;28;20101;-81
2024/01/29 05:01:12;;;;;;;7.28;5.70;;;;;;;;;;4988248;28;20146;-80
2024/01/29 05:03:38;;;;;;;8.70;6.32;;;;;;;;;;4986971;28;20464;-80
2024/01/29 05:06:05;;;;;;;8.40;6.00;;;;;;;;;;5016650;28;20080;-80
2024/01/29 05:08:31;;;;;;;9.00;6.30;;;;;;;;;;5023028;28;20050;-81
2024/01/29 05:10:57;;;;;;;10.18;6.43;;;;;;;;;;4993394;28;20064;-80
2024/01/29 05:13:23;;;;;;;9.98;6.72;;;;;;;;;;5026746;28;20655;-80
2024/01/29 05:15:49;;;;;;;7.57;5.90;;;;;;;;;;4991659;28;20084;-80
2024/01/29 05:18:15;;;;;;;6.80;5.72;;;;;;;;;;4993398;28;20073;-80
2024/01/29 05:20:41;;;;;;;7.28;5.70;;;;;;;;;;5026585;28;20498;-80
2024/01/29 05:23:07;;;;;;;7.93;6.10;;;;;;;;;;5027591;28;20041;-80
2024/01/29 05:25:33;;;;;;;6.85;6.07;;;;;;;;;;5026794;28;20053;-80
2024/01/29 05:27:59;;;;;;;8.90;6.22;;;;;;;;;;5024448;28;20053;-80
2024/01/29 05:30:25;;;;;;;8.18;5.82;;;;;;;;;;5028072;28;20068;-80
2024/01/29 05:32:51;;;;;;;8.52;6.38;;;;;;;;;;5009047;28;20060;-80
2024/01/29 05:35:17;;;;;;;9.18;5.85;;;;;;;;;;5008056;28;20553;-80
2024/01/29 05:37:43;;;;;;;9.63;6.10;;;;;;;;;;5024147;28;20050;-80
2024/01/29 05:40:11;;;;;;;7.68;6.50;;;;;;;;;;5027271;28;20045;-80
2024/01/29 05:42:37;;;;;;;8.68;6.15;;;;;;;;;;5027157;28;20099;-80
2024/01/29 05:45:03;;;;;;;7.63;5.50;;;;;;;;;;5010487;28;20053;-80
2024/01/29 05:47:30;;;;;;;8.50;6.32;;;;;;;;;;5023660;28;20065;-80
2024/01/29 05:49:56;;;;;;;8.00;5.88;;;;;;;;;;5028067;28;20136;-80
2024/01/29 05:52:22;;;;;;;7.65;5.65;;;;;;;;;;5026871;28;20452;-80
2024/01/29 05:54:48;;;;;;;8.25;6.22;;;;;;;;;;5024874;28;20049;-80
2024/01/29 05:57:17;;;;;;;8.13;5.88;;;;;;;;;;5026720;28;20056;-80
2024/01/29 05:59:42;;;;;;;8.02;5.90;;;;;;;;;;5026467;28;20534;-81
2024/01/29 06:02:09;;;;;;;6.60;5.82;;;;;;;;;;4993486;28;20045;-81
2024/01/29 06:04:35;;;;;;;7.57;5.95;;;;;;;;;;4989869;28;20081;-81
2024/01/29 06:07:01;;;;;;;7.30;5.78;;;;;;;;;;4988196;28;20140;-80
2024/01/29 06:09:29;;;;;;;8.15;6.32;;;;;;;;;;5007154;28;20444;-80
2024/01/29 06:11:55;;;;;;;13.35;9.35;;;;;;;;;;5025303;28;20099;-81
2024/01/29 06:14:21;;;;;;;17.38;11.23;;;;;;;;;;5026570;28;20087;-80
2024/01/29 06:16:47;;;;;;;10.93;8.90;;;;;;;;;;5008354;28;20053;-80
2024/01/29 06:19:15;;;;;;;22.98;15.90;;;;;;;;;;5025305;28;20472;-80
2024/01/29 06:21:48;;;;;;;19.95;15.00;;;;;;;;;;5009274;28;20104;-80
2024/01/29 06:24:14;;;;;;;17.42;13.02;;;;;;;;;;5024500;28;20510;-80
2024/01/29 06:26:41;;;;;;;17.38;14.10;;;;;;;;;;5024820;28;20045;-80
2024/01/29 06:29:07;;;;;;;13.48;9.30;;;;;;;;;;5026434;28;20514;-80
2024/01/29 06:31:33;;;;;;;10.52;7.82;;;;;;;;;;5008830;28;20100;-80
2024/01/29 06:33:59;;;;;;;8.70;7.75;;;;;;;;;;5024894;28;20042;-80
2024/01/29 06:36:25;;;;;;;11.50;9.30;;;;;;;;;;5007622;28;20168;-80
2024/01/29 06:38:52;;;;;;;10.27;7.80;;;;;;;;;;5026746;28;20395;-80
2024/01/29 06:41:22;;;;;;;11.40;8.68;;;;;;;;;;5008160;28;20049;-80
2024/01/29 06:43:48;;;;;;;9.18;7.28;;;;;;;;;;5003725;28;20072;-81
2024/01/29 06:46:15;;;;;;;11.05;7.97;;;;;;;;;;5006784;28;20049;-81
2024/01/29 06:48:41;;;;;;;11.45;9.20;;;;;;;;;;5027212;28;20356;-82
2024/01/29 06:51:07;;;;;;;9.82;7.75;;;;;;;;;;5025024;28;20051;-81
2024/01/29 06:53:33;;;;;;;11.90;8.07;;;;;;;;;;5011557;28;20048;-80
2024/01/29 06:55:59;;;;;;;11.77;9.05;;;;;;;;;;5029111;28;20411;-80
2024/01/29 06:58:26;;;;;;;11.85;8.05;;;;;;;;;;5014446;28;20049;-81
2024/01/29 07:00:54;;;;;;;8.65;7.15;;;;;;;;;;5030198;28;20050;-79
2024/01/29 07:03:20;;;;;;;12.00;8.00;;;;;;;;;;5027780;28;20111;-79
2024/01/29 07:05:48;;;;;;;11.60;8.70;;;;;;;;;;5030871;28;20042;-79
2024/01/29 07:08:14;;;;;;;13.23;8.48;;;;;;;;;;5011349;28;20056;-79
2024/01/29 07:10:40;;;;;;;10.32;7.82;;;;;;;;;;5017977;28;20195;-79
2024/01/29 07:13:06;;;;;;;12.23;7.70;;;;;;;;;;5028892;28;20057;-79
2024/01/29 07:15:32;;;;;;;11.57;7.70;;;;;;;;;;5023859;28;20183;-79
2024/01/29 07:17:58;;;;;;;10.30;7.32;;;;;;;;;;5030601;28;20460;-79
2024/01/29 07:20:24;;;;;;;9.10;8.15;;;;;;;;;;5013419;28;20148;-79
2024/01/29 07:22:51;;;;;;;12.90;9.20;;;;;;;;;;5045606;28;20044;-79
2024/01/29 07:25:17;;;;;;;14.07;9.77;;;;;;;;;;5032422;28;20049;-79
2024/01/29 07:27:43;;;;;;;19.33;12.60;;;;;;;;;;5050921;28;20427;-79
2024/01/29 07:30:09;;;;;;;21.48;16.92;;;;;;;;;;5049251;28;20044;-79
2024/01/29 07:32:36;;;;;;;25.75;18.15;;;;;;;;;;5030032;28;20057;-79
2024/01/29 07:35:03;;;;;;;31.17;18.42;;;;;;;;;;5011199;28;20448;-79
2024/01/29 07:37:30;;;;;;;23.33;14.57;;;;;;;;;;5012478;28;20088;-79
2024/01/29 07:39:56;;;;;;;49.35;24.73;;;;;;;;;;5012826;28;20053;-79
2024/01/29 07:42:22;;;;;;;101.85;44.03;;;;;;;;;;5030223;28;20059;-80
2024/01/29 07:44:49;;;;;;;65.15;29.95;;;;;;;;;;5028414;28;20060;-80
2024/01/29 07:47:15;;;;;;;57.25;27.40;;;;;;;;;;5030207;28;20041;-82
2024/01/29 07:49:41;;;;;;;23.08;13.63;;;;;;;;;;5012610;28;20088;-81
2024/01/29 07:52:08;;;;;;;16.48;10.85;;;;;;;;;;5030354;28;20049;-82
2024/01/29 07:54:35;;;;;;;12.65;9.55;;;;;;;;;;5011953;28;20041;-82
2024/01/29 07:57:01;;;;;;;10.70;8.23;;;;;;;;;;5030073;28;20054;-82
2024/01/29 07:59:27;;;;;;;10.27;8.10;;;;;;;;;;5040307;28;20533;-82
2024/01/29 08:01:53;;;;;;;13.02;8.82;;;;;;;;;;5029622;28;20187;-82
2024/01/29 08:04:19;;;;;;;10.38;8.40;;;;;;;;;;5029720;28;20052;-82
2024/01/29 08:06:45;;;;;;;11.18;9.15;;;;;;;;;;5029826;28;20050;-82
2024/01/29 08:09:11;;;;;;;12.60;9.90;;;;;;;;;;5028300;28;20186;-83
2024/01/29 08:11:37;;;;;;;11.75;10.18;;;;;;;;;;5028048;28;20418;-82
2024/01/29 08:14:03;;;;;;;12.60;9.02;;;;;;;;;;5029957;28;20045;-83
2024/01/29 08:16:29;;;;;;;8.82;7.68;;;;;;;;;;5030240;28;20154;-83
2024/01/29 08:18:57;;;;;;;10.95;7.72;;;;;;;;;;5010270;28;20056;-83
2024/01/29 08:21:22;;;;;;;10.00;7.88;;;;;;;;;;5012303;28;20410;-82
2024/01/29 08:23:49;;;;;;;10.95;7.70;;;;;;;;;;5012037;28;20053;-81
2024/01/29 08:26:15;;;;;;;12.13;8.10;;;;;;;;;;5028862;28;20049;-81
2024/01/29 08:28:41;;;;;;;8.93;7.57;;;;;;;;;;5024977;28;20050;-83
2024/01/29 08:31:08;;;;;;;9.45;7.72;;;;;;;;;;4992382;28;20053;-83
2024/01/29 08:33:36;;;;;;;8.75;7.70;;;;;;;;;;4998191;28;20057;-82
2024/01/29 08:36:02;;;;;;;9.57;7.22;;;;;;;;;;5011444;28;20045;-83
2024/01/29 08:38:28;;;;;;;9.68;7.90;;;;;;;;;;5012251;28;20392;-80
2024/01/29 08:40:55;;;;;;;9.38;7.40;;;;;;;;;;5028522;28;20080;-80
2024/01/29 08:43:21;;;;;;;13.20;7.95;;;;;;;;;;5011483;28;20049;-82
2024/01/29 08:45:47;;;;;;;9.80;7.53;;;;;;;;;;4994748;28;20050;-82
2024/01/29 08:48:13;;;;;;;11.30;7.97;;;;;;;;;;5028955;28;20041;-82
2024/01/29 08:50:39;;;;;;;10.52;7.85;;;;;;;;;;5011685;28;20045;-79
2024/01/29 08:53:05;;;;;;;10.43;7.68;;;;;;;;;;5011898;28;20128;-82
2024/01/29 08:55:32;;;;;;;10.75;7.63;;;;;;;;;;5028610;28;20194;-82
2024/01/29 08:57:58;;;;;;;10.02;7.53;;;;;;;;;;5031640;28;20629;-80
2024/01/29 09:00:24;;;;;;;11.50;8.05;;;;;;;;;;5035793;28;20159;-81
2024/01/29 09:02:50;;;;;;;10.05;8.38;;;;;;;;;;5048459;28;20510;-83
2024/01/29 09:05:16;;;;;;;8.82;6.90;;;;;;;;;;5030182;28;20053;-81
2024/01/29 09:07:42;;;;;;;10.23;8.40;;;;;;;;;;5030938;28;20052;-81
2024/01/29 09:10:08;;;;;;;12.30;7.72;;;;;;;;;;5048713;28;20060;-80
2024/01/29 09:12:34;;;;;;;13.90;8.02;;;;;;;;;;5011588;28;20602;-80
2024/01/29 09:15:04;;;;;;;9.75;7.53;;;;;;;;;;5029117;28;20045;-79
2024/01/29 09:17:30;;;;;;;8.50;7.65;;;;;;;;;;5029120;28;20053;-80
2024/01/29 09:19:57;;;;;;;10.60;8.10;;;;;;;;;;5010180;28;20053;-81
2024/01/29 09:22:23;;;;;;;10.85;7.75;;;;;;;;;;5027906;28;20396;-80
2024/01/29 09:24:49;;;;;;;10.30;7.82;;;;;;;;;;5026687;28;20037;-80
2024/01/29 09:27:15;;;;;;;9.20;7.40;;;;;;;;;;5027720;28;20040;-80
2024/01/29 09:29:41;;;;;;;10.50;7.95;;;;;;;;;;5009888;28;20183;-80
2024/01/29 09:32:08;;;;;;;9.80;8.10;;;;;;;;;;5014428;28;20132;-81
2024/01/29 09:34:34;;;;;;;10.68;9.57;;;;;;;;;;5033549;28;20088;-80
2024/01/29 09:37:00;;;;;;;11.23;9.07;;;;;;;;;;4993952;28;20048;-81
2024/01/29 09:39:26;;;;;;;10.88;8.60;;;;;;;;;;5026881;28;20045;-80
2024/01/29 09:41:55;;;;;;;12.98;8.90;;;;;;;;;;4993891;28;20589;-79
2024/01/29 09:44:22;;;;;;;11.90;10.13;;;;;;;;;;5010241;28;20490;-80
2024/01/29 09:46:49;;;;;;;10.23;8.90;;;;;;;;;;5028070;28;20041;-79
2024/01/29 09:49:15;;;;;;;11.93;8.55;;;;;;;;;;4993899;28;20049;-79
2024/01/29 09:51:44;;;;;;;9.98;8.63;;;;;;;;;;5029468;28;20075;-80
2024/01/29 09:54:11;;;;;;;12.90;8.63;;;;;;;;;;5028209;28;20049;-80
2024/01/29 09:56:37;;;;;;;11.48;8.50;;;;;;;;;;5027908;28;20045;-79
2024/01/29 09:59:03;;;;;;;10.80;8.27;;;;;;;;;;5027974;28;20041;-80
2024/01/29 10:01:29;;;;;;;10.10;8.18;;;;;;;;;;5028157;28;20092;-80
2024/01/29 10:03:55;;;;;;;14.50;8.25;;;;;;;;;;5010395;28;20099;-80
2024/01/29 10:06:21;;;;;;;11.38;7.88;;;;;;;;;;5027668;28;20569;-80
2024/01/29 10:08:47;;;;;;;10.50;8.20;;;;;;;;;;5010957;28;20064;-80
2024/01/29 10:11:16;;;;;;;11.45;8.60;;;;;;;;;;5010439;28;20052;-80
2024/01/29 10:13:42;;;;;;;9.70;8.27;;;;;;;;;;5027947;28;20049;-80
2024/01/29 10:16:08;;;;;;;10.52;8.35;;;;;;;;;;5010483;28;20057;-80
2024/01/29 10:18:34;;;;;;;10.85;9.43;;;;;;;;;;5010348;28;20042;-80
2024/01/29 10:21:00;;;;;;;12.30;8.73;;;;;;;;;;5010307;28;20041;-80
2024/01/29 10:23:27;;;;;;;9.60;8.60;;;;;;;;;;5028167;28;20045;-80
2024/01/29 10:25:56;;;;;;;9.75;8.65;;;;;;;;;;5029677;28;20545;-81
2024/01/29 10:28:23;;;;;;;11.48;8.68;;;;;;;;;;5013484;28;20924;-80
2024/01/29 10:30:50;;;;;;;10.25;9.10;;;;;;;;;;5013760;28;20068;-79
2024/01/29 10:33:16;;;;;;;12.10;8.80;;;;;;;;;;5048776;28;20045;-80
2024/01/29 10:35:42;;;;;;;9.02;8.02;;;;;;;;;;5034245;28;20502;-80
2024/01/29 10:38:13;;;;;;;9.98;8.80;;;;;;;;;;5017086;28;20162;-80
2024/01/29 10:40:41;;;;;;;17.83;11.85;;;;;;;;;;5051178;28;20049;-80
2024/01/29 10:43:10;;;;;;;14.80;10.85;;;;;;;;;;5051715;28;20056;-80
2024/01/29 10:45:39;;;;;;;10.25;8.73;;;;;;;;;;5051846;28;20118;-80
2024/01/29 10:48:11;;;;;;;11.43;9.25;;;;;;;;;;5050642;28;20048;-78
2024/01/29 10:50:37;;;;;;;12.65;9.52;;;;;;;;;;5038530;28;20045;-79
2024/01/29 10:53:04;;;;;;;11.25;9.60;;;;;;;;;;5031522;28;20503;-78
2024/01/29 10:55:31;;;;;;;12.70;9.52;;;;;;;;;;5030872;28;20157;-79
2024/01/29 10:58:01;;;;;;;13.23;9.27;;;;;;;;;;5030051;28;20069;-78
2024/01/29 11:00:33;;;;;;;13.02;10.02;;;;;;;;;;5029270;28;20069;-78
2024/01/29 11:03:00;;;;;;;13.68;10.55;;;;;;;;;;5009608;28;20041;-78
2024/01/29 11:05:26;;;;;;;14.32;10.52;;;;;;;;;;4998536;28;20528;-77
2024/01/29 11:07:54;;;;;;;13.43;11.05;;;;;;;;;;4987388;28;20112;-77
2024/01/29 11:10:22;;;;;;;11.48;9.77;;;;;;;;;;4989051;28;20050;-78
2024/01/29 11:12:49;;;;;;;13.93;9.23;;;;;;;;;;4989360;28;20065;-77
2024/01/29 11:15:15;;;;;;;12.73;9.50;;;;;;;;;;4989334;28;20054;-77
2024/01/29 11:17:42;;;;;;;10.88;9.73;;;;;;;;;;4987662;28;20084;-77
2024/01/29 11:20:12;;;;;;;12.25;10.68;;;;;;;;;;4991525;28;20046;-77
2024/01/29 11:22:39;;;;;;;12.38;10.90;;;;;;;;;;4988783;28;20552;-78
2024/01/29 11:25:09;;;;;;;13.82;10.00;;;;;;;;;;4990340;28;20046;-78
2024/01/29 11:27:38;;;;;;;15.30;12.25;;;;;;;;;;4990827;28;20057;-78
2024/01/29 11:30:20;;;;;;;13.55;10.73;;;;;;;;;;4989118;28;20050;-78
2024/01/29 11:32:47;;;;;;;14.32;10.43;;;;;;;;;;4989284;28;20116;-78
2024/01/29 11:35:14;;;;;;;15.57;11.60;;;;;;;;;;4986567;28;20765;-78
2024/01/29 11:37:41;;;;;;;11.65;9.63;;;;;;;;;;4987323;28;20074;-78
2024/01/29 11:40:26;;;;;;;12.63;9.82;;;;;;;;;;4988702;28;20477;-78
2024/01/29 11:42:53;;;;;;;12.60;10.55;;;;;;;;;;4989154;28;20046;-79
2024/01/29 11:45:19;;;;;;;15.93;11.52;;;;;;;;;;4989819;28;20085;-79
2024/01/29 11:47:45;;;;;;;15.13;10.30;;;;;;;;;;4984791;28;20092;-78
2024/01/29 11:50:13;;;;;;;14.63;10.73;;;;;;;;;;4989380;28;20054;-80
2024/01/29 11:52:40;;;;;;;12.88;10.38;;;;;;;;;;4989902;28;20400;-79
2024/01/29 11:55:06;;;;;;;12.80;10.80;;;;;;;;;;4986027;28;20700;-79
2024/01/29 11:57:32;;;;;;;13.82;10.90;;;;;;;;;;4991864;28;20100;-78
2024/01/29 12:00:02;;;;;;;13.23;10.10;;;;;;;;;;4996402;28;20054;-78
2024/01/29 12:02:30;;;;;;;14.15;10.80;;;;;;;;;;4991888;28;20054;-78
2024/01/29 12:04:56;;;;;;;15.73;10.60;;;;;;;;;;4999118;28;20049;-79
2024/01/29 12:07:22;;;;;;;11.43;10.02;;;;;;;;;;5028524;28;20077;-81
2024/01/29 12:09:48;;;;;;;14.00;11.18;;;;;;;;;;5028019;28;20154;-80
2024/01/29 12:12:15;;;;;;;12.98;10.55;;;;;;;;;;5032184;28;20136;-80
2024/01/29 12:14:41;;;;;;;13.10;10.32;;;;;;;;;;5028534;28;20061;-79
2024/01/29 12:17:09;;;;;;;14.25;10.25;;;;;;;;;;5023042;28;20064;-80
2024/01/29 12:19:35;;;;;;;13.90;10.40;;;;;;;;;;4985131;28;20051;-80
2024/01/29 12:22:01;;;;;;;14.50;10.55;;;;;;;;;;4993374;28;20099;-79
2024/01/29 12:24:28;;;;;;;13.73;11.68;;;;;;;;;;5011731;28;20041;-79
2024/01/29 12:26:54;;;;;;;12.80;10.93;;;;;;;;;;5028343;28;20041;-80
2024/01/29 12:29:20;;;;;;;18.05;11.60;;;;;;;;;;4995636;28;20415;-79
2024/01/29 12:31:46;;;;;;;13.48;10.90;;;;;;;;;;5036326;28;20041;-80
2024/01/29 12:34:20;;;;;;;14.52;11.48;;;;;;;;;;5028673;28;20573;-79
2024/01/29 12:36:51;;;;;;;14.80;11.93;;;;;;;;;;5011496;28;20057;-80
2024/01/29 12:39:17;;;;;;;14.67;11.00;;;;;;;;;;5011006;28;20049;-79
2024/01/29 12:41:43;;;;;;;17.02;10.93;;;;;;;;;;4994387;28;20089;-80
2024/01/29 12:44:10;;;;;;;15.32;12.20;;;;;;;;;;5027373;28;20151;-79
2024/01/29 12:46:36;;;;;;;19.25;13.48;;;;;;;;;;5011078;28;20775;-79
2024/01/29 12:49:03;;;;;;;19.30;14.63;;;;;;;;;;5026782;28;20053;-80
2024/01/29 12:51:29;;;;;;;16.70;13.13;;;;;;;;;;5010604;28;20572;-80
2024/01/29 12:53:56;;;;;;;18.35;14.38;;;;;;;;;;5028373;28;20052;-80
2024/01/29 12:56:23;;;;;;;14.82;12.98;;;;;;;;;;5027775;28;20050;-79
2024/01/29 12:58:49;;;;;;;15.48;12.38;;;;;;;;;;5028571;28;20053;-79
2024/01/29 13:01:15;;;;;;;14.07;11.07;;;;;;;;;;5030380;28;20052;-79
2024/01/29 13:03:41;;;;;;;15.32;12.98;;;;;;;;;;5029862;28;20056;-79
2024/01/29 13:06:07;;;;;;;15.35;12.80;;;;;;;;;;5041804;28;20053;-79
2024/01/29 13:08:33;;;;;;;16.67;12.38;;;;;;;;;;5027595;28;20053;-79
2024/01/29 13:10:59;;;;;;;13.90;11.60;;;;;;;;;;5009988;28;20534;-79
2024/01/29 13:13:26;;;;;;;14.07;11.13;;;;;;;;;;5029116;28;20077;-79
2024/01/29 13:15:52;;;;;;;15.80;11.10;;;;;;;;;;5043570;28;20049;-78
2024/01/29 13:18:18;;;;;;;13.68;10.95;;;;;;;;;;5027012;28;20052;-79
2024/01/29 13:20:44;;;;;;;14.43;11.35;;;;;;;;;;5010705;28;20503;-79
2024/01/29 13:23:10;;;;;;;12.70;11.10;;;;;;;;;;5024037;28;20041;-78
2024/01/29 13:25:36;;;;;;;17.05;12.25;;;;;;;;;;5028124;28;20050;-78
2024/01/29 13:28:04;;;;;;;15.60;11.82;;;;;;;;;;5009854;28;20083;-79
2024/01/29 13:30:30;;;;;;;16.40;11.30;;;;;;;;;;5028067;28;20056;-78
2024/01/29 13:32:56;;;;;;;15.48;11.32;;;;;;;;;;4992882;28;20049;-78
2024/01/29 13:35:22;;;;;;;16.15;11.23;;;;;;;;;;5007559;28;20565;-79
2024/01/29 13:37:50;;;;;;;11.75;10.15;;;;;;;;;;5024638;28;20057;-79
2024/01/29 13:40:16;;;;;;;14.77;11.00;;;;;;;;;;5027546;28;20128;-80
2024/01/29 13:42:42;;;;;;;13.50;11.25;;;;;;;;;;5027137;28;20057;-80
2024/01/29 13:45:08;;;;;;;12.20;10.30;;;;;;;;;;4993941;28;20045;-80
2024/01/29 13:47:34;;;;;;;16.42;11.48;;;;;;;;;;5027931;28;20053;-80
2024/01/29 13:50:02;;;;;;;15.43;11.50;;;;;;;;;;5026064;28;20049;-80
2024/01/29 13:52:28;;;;;;;15.63;11.50;;;;;;;;;;5025411;28;20128;-80
2024/01/29 13:54:54;;;;;;;14.88;11.90;;;;;;;;;;5027843;28;20933;-80
2024/01/29 13:57:20;;;;;;;14.23;12.15;;;;;;;;;;5024404;28;20534;-80
2024/01/29 13:59:46;;;;;;;15.68;12.10;;;;;;;;;;4991648;28;20083;-76
2024/01/29 14:02:13;;;;;;;16.40;12.07;;;;;;;;;;5026428;28;20046;-77
2024/01/29 14:04:39;;;;;;;13.25;11.15;;;;;;;;;;5028055;28;20487;-77
2024/01/29 14:07:06;;;;;;;14.63;11.25;;;;;;;;;;5028010;28;20084;-77
2024/01/29 14:09:32;;;;;;;14.13;12.00;;;;;;;;;;5027645;28;20138;-77
2024/01/29 14:11:58;;;;;;;15.10;11.50;;;;;;;;;;5024826;28;21622;-77
2024/01/29 14:14:25;;;;;;;17.42;12.07;;;;;;;;;;5040665;28;20422;-77
2024/01/29 14:16:51;;;;;;;13.27;10.52;;;;;;;;;;5046957;28;20073;-77
2024/01/29 14:19:17;;;;;;;15.93;11.75;;;;;;;;;;5048138;28;20084;-79
2024/01/29 14:21:43;;;;;;;13.98;12.07;;;;;;;;;;5030405;28;20159;-79
2024/01/29 14:24:09;;;;;;;13.73;11.45;;;;;;;;;;5030213;28;20056;-79
2024/01/29 14:26:37;;;;;;;14.57;11.13;;;;;;;;;;5036941;28;20091;-79
2024/01/29 14:29:04;;;;;;;13.10;11.70;;;;;;;;;;5026726;28;20087;-79